Time;durP1;ratioP1;P1;durP2;ratioP2;P2;SDS_P1;SDS_P2;PMS_P1;PMS_P2;Temp;Humidity;BMP_temperature;BMP_pressure;BME280_temperature;BME280_humidity;BME280_pressure;Samples;Min_cycle;Max_cycle;Signal;HPM_P1;HPM_P2
2022/08/24 04:01:34;;;;;;;8.20;7.60;;;17.90;99.90;;;;;;5457886;23;20969;-62
2022/08/24 04:04:01;;;;;;;8.60;7.90;;;17.80;99.90;;;;;;4976778;28;20455;-62
2022/08/24 04:06:28;;;;;;;8.50;7.67;;;17.80;99.90;;;;;;4976738;28;20883;-62
2022/08/24 04:08:55;;;;;;;7.77;7.13;;;17.90;99.90;;;;;;4976391;28;20462;-62
2022/08/24 04:11:26;;;;;;;7.70;7.20;;;17.90;99.90;;;;;;4976694;28;20841;-62
2022/08/24 04:13:55;;;;;;;8.63;7.80;;;17.90;99.90;;;;;;4976783;28;20574;-62
2022/08/24 04:16:23;;;;;;;9.60;8.80;;;17.90;99.90;;;;;;4976237;28;20486;-62
2022/08/24 04:18:51;;;;;;;10.97;9.93;;;17.90;99.90;;;;;;4976509;28;20455;-62
2022/08/24 04:21:20;;;;;;;10.90;9.33;;;17.90;99.90;;;;;;4975880;28;20482;-62
2022/08/24 04:23:47;;;;;;;12.97;10.67;;;17.80;99.90;;;;;;4976458;28;20466;-62
2022/08/24 04:26:14;;;;;;;10.63;9.90;;;17.80;99.90;;;;;;4976267;28;20482;-62
2022/08/24 04:28:41;;;;;;;10.93;9.83;;;17.70;99.90;;;;;;4976035;28;20454;-62
2022/08/24 04:31:08;;;;;;;11.40;10.50;;;17.70;99.90;;;;;;4976268;28;20483;-62
2022/08/24 04:33:35;;;;;;;12.60;10.00;;;17.60;99.90;;;;;;4975934;28;20969;-62
2022/08/24 04:36:07;;;;;;;11.30;10.33;;;17.60;99.90;;;;;;4976195;28;20450;-62
2022/08/24 04:38:33;;;;;;;14.47;10.40;;;17.50;99.90;;;;;;4976141;28;20452;-62
2022/08/24 04:41:00;;;;;;;10.70;9.80;;;17.40;99.90;;;;;;4976044;28;20485;-62
2022/08/24 04:43:27;;;;;;;11.97;10.40;;;17.40;99.90;;;;;;4976031;28;20455;-61
2022/08/24 04:45:54;;;;;;;11.27;10.27;;;17.40;99.90;;;;;;4975883;28;20482;-63
2022/08/24 04:48:21;;;;;;;10.37;9.40;;;17.30;99.90;;;;;;4977854;28;20454;-62
2022/08/24 04:50:48;;;;;;;13.53;10.30;;;17.30;99.90;;;;;;4975929;28;20903;-62
2022/08/24 04:53:16;;;;;;;10.50;9.70;;;17.30;99.90;;;;;;4975905;28;20482;-62
2022/08/24 04:55:45;;;;;;;11.47;10.47;;;17.30;99.90;;;;;;4975442;28;20546;-62
2022/08/24 04:58:13;;;;;;;11.47;10.37;;;17.40;99.90;;;;;;4975753;28;20454;-62
2022/08/24 05:00:40;;;;;;;10.70;9.63;;;17.40;99.90;;;;;;4975384;28;20487;-62
2022/08/24 05:03:10;;;;;;;10.93;10.03;;;17.40;99.90;;;;;;4975734;28;20440;-62
2022/08/24 05:05:40;;;;;;;10.87;9.87;;;17.40;99.90;;;;;;4975468;28;20458;-62
2022/08/24 05:08:07;;;;;;;9.90;8.90;;;17.50;99.90;;;;;;4975502;28;20439;-62
2022/08/24 05:10:37;;;;;;;10.80;9.80;;;17.60;99.90;;;;;;4976308;28;20478;-62
2022/08/24 05:13:04;;;;;;;11.17;10.20;;;17.70;99.90;;;;;;4976581;28;20506;-62
2022/08/24 05:15:31;;;;;;;10.00;9.27;;;17.80;99.90;;;;;;4975306;28;20454;-62
2022/08/24 05:17:58;;;;;;;9.70;8.87;;;17.90;99.90;;;;;;4975477;28;20487;-62
2022/08/24 05:20:25;;;;;;;9.67;8.97;;;18.00;99.90;;;;;;4974929;28;20934;-62
2022/08/24 05:22:52;;;;;;;9.10;8.40;;;18.00;99.90;;;;;;4975353;28;20509;-62
2022/08/24 05:25:18;;;;;;;9.90;8.90;;;18.10;99.90;;;;;;4975698;28;20482;-62
2022/08/24 05:27:46;;;;;;;9.13;8.43;;;18.20;99.90;;;;;;4975419;28;20470;-62
2022/08/24 05:30:14;;;;;;;9.50;8.60;;;18.20;99.90;;;;;;4975448;28;20450;-62
2022/08/24 05:32:41;;;;;;;9.47;8.77;;;18.30;99.90;;;;;;4975228;28;20461;-63
2022/08/24 05:35:08;;;;;;;10.73;9.83;;;18.40;99.90;;;;;;4975267;28;20440;-63
2022/08/24 05:37:36;;;;;;;9.53;8.63;;;18.50;99.90;;;;;;4975470;28;20506;-63
2022/08/24 05:40:04;;;;;;;9.57;8.60;;;18.60;99.90;;;;;;4975272;28;20466;-62
2022/08/24 05:42:31;;;;;;;8.40;7.60;;;18.60;99.90;;;;;;4975065;28;20481;-62
2022/08/24 05:44:59;;;;;;;10.47;9.57;;;18.70;99.90;;;;;;4974590;28;21020;-62
2022/08/24 05:47:26;;;;;;;9.73;8.97;;;18.90;99.90;;;;;;4974759;28;20488;-62
2022/08/24 05:49:53;;;;;;;9.80;8.30;;;19.10;99.90;;;;;;4974853;28;20459;-64
2022/08/24 05:52:20;;;;;;;8.80;8.00;;;19.30;99.90;;;;;;4974607;28;20478;-63
2022/08/24 05:54:52;;;;;;;8.83;8.13;;;19.50;99.90;;;;;;4974552;28;20545;-63
2022/08/24 05:57:19;;;;;;;8.90;8.00;;;19.60;99.90;;;;;;4974785;28;20435;-62
2022/08/24 05:59:46;;;;;;;8.90;8.00;;;19.70;99.90;;;;;;4974843;28;20458;-63
2022/08/24 06:02:14;;;;;;;8.93;8.07;;;19.60;99.90;;;;;;4974435;28;20493;-62
2022/08/24 06:04:41;;;;;;;9.47;8.60;;;19.70;99.90;;;;;;4974700;28;20477;-62
2022/08/24 06:07:10;;;;;;;11.20;8.57;;;19.60;99.90;;;;;;4974704;28;20512;-63
2022/08/24 06:09:36;;;;;;;9.03;8.07;;;19.70;99.90;;;;;;4974803;28;20462;-62
2022/08/24 06:12:04;;;;;;;9.00;8.00;;;19.70;99.90;;;;;;4974678;28;20481;-63
2022/08/24 06:14:32;;;;;;;9.20;7.90;;;19.90;99.90;;;;;;4974885;28;20463;-63
2022/08/24 06:16:59;;;;;;;8.07;7.37;;;20.10;99.90;;;;;;4974696;28;20461;-62
2022/08/24 06:19:27;;;;;;;8.40;7.30;;;20.30;99.90;;;;;;4975225;28;20461;-63
2022/08/24 06:21:55;;;;;;;7.87;7.13;;;20.50;99.90;;;;;;4974435;28;20481;-63
2022/08/24 06:27:20;;;;;;;7.70;7.00;;;20.80;99.90;;;;;;4974499;28;20450;-64
2022/08/24 06:27:21;;;;;;;11.30;7.53;;;21.10;99.90;;;;;;4974385;28;21058;-64
2022/08/24 06:29:48;;;;;;;6.83;6.27;;;21.30;99.90;;;;;;4974754;28;20445;-63
2022/08/24 06:32:15;;;;;;;6.67;6.10;;;21.60;99.90;;;;;;4974775;28;20501;-63
2022/08/24 06:34:43;;;;;;;6.83;6.20;;;21.90;99.90;;;;;;4974629;28;20458;-63
2022/08/24 06:37:10;;;;;;;6.17;5.67;;;22.40;99.90;;;;;;4974790;28;20889;-65
2022/08/24 06:39:37;;;;;;;5.53;5.13;;;22.90;99.90;;;;;;4974763;28;20443;-66
2022/08/24 06:42:04;;;;;;;5.57;5.17;;;23.60;99.90;;;;;;4974157;28;20990;-63
2022/08/24 06:44:31;;;;;;;6.87;6.07;;;24.10;99.90;;;;;;4974756;28;20454;-71
2022/08/24 06:46:58;;;;;;;5.30;4.83;;;24.80;99.90;;;;;;4977760;28;20517;-64
2022/08/24 06:49:25;;;;;;;5.87;5.10;;;25.50;98.40;;;;;;4978009;28;20454;-63
2022/08/24 06:51:53;;;;;;;5.43;4.90;;;26.10;95.60;;;;;;4979014;28;20478;-63
2022/08/24 06:54:20;;;;;;;4.37;4.03;;;26.80;93.30;;;;;;4980421;28;20945;-63
2022/08/24 06:56:47;;;;;;;8.73;4.67;;;27.30;91.00;;;;;;4980397;28;20490;-63
2022/08/24 06:59:14;;;;;;;6.60;6.00;;;27.60;87.70;;;;;;4978654;28;20450;-63
2022/08/24 07:01:41;;;;;;;4.87;3.97;;;27.80;83.70;;;;;;4977406;28;20485;-64
2022/08/24 07:04:08;;;;;;;4.93;4.40;;;28.10;83.40;;;;;;4977937;28;20454;-63
2022/08/24 07:06:35;;;;;;;10.83;3.90;;;28.50;80.90;;;;;;4977692;28;20524;-63
2022/08/24 07:09:04;;;;;;;6.53;4.07;;;28.90;77.60;;;;;;4977885;28;20454;-64
2022/08/24 07:11:33;;;;;;;5.43;4.20;;;29.30;73.70;;;;;;4977616;28;20478;-64
2022/08/24 07:14:00;;;;;;;3.90;3.60;;;29.60;72.00;;;;;;4977560;28;20480;-64
2022/08/24 07:16:27;;;;;;;8.63;4.10;;;29.80;70.70;;;;;;4977662;28;20502;-64
2022/08/24 07:18:54;;;;;;;6.20;3.97;;;30.10;68.20;;;;;;4977428;28;20962;-64
2022/08/24 07:21:21;;;;;;;6.00;4.70;;;30.40;66.30;;;;;;4978493;28;20481;-64
2022/08/24 07:23:49;;;;;;;5.53;4.30;;;30.70;65.50;;;;;;4977943;28;20462;-63
2022/08/24 07:26:21;;;;;;;5.97;4.20;;;30.90;65.50;;;;;;4978106;28;20469;-63
2022/08/24 07:28:48;;;;;;;5.40;4.50;;;30.60;65.40;;;;;;4977535;28;20446;-64
2022/08/24 07:31:15;;;;;;;4.37;3.80;;;30.80;66.60;;;;;;4977173;28;20481;-64
2022/08/24 07:33:41;;;;;;;4.53;4.13;;;30.70;66.20;;;;;;4977461;28;20466;-64
2022/08/24 07:36:08;;;;;;;5.47;4.23;;;31.00;62.70;;;;;;4977366;28;20875;-64
2022/08/24 07:38:35;;;;;;;7.13;3.87;;;31.30;63.70;;;;;;4978266;28;20780;-64
2022/08/24 07:41:02;;;;;;;4.23;3.80;;;31.30;64.60;;;;;;4977323;28;20479;-63
2022/08/24 07:43:30;;;;;;;6.17;3.90;;;31.60;62.20;;;;;;4977412;28;20477;-64
2022/08/24 07:45:57;;;;;;;3.90;3.70;;;31.50;62.70;;;;;;4977122;28;20459;-64
2022/08/24 07:48:24;;;;;;;4.60;3.60;;;31.80;61.50;;;;;;4976966;28;20505;-64
2022/08/24 07:50:51;;;;;;;4.87;3.50;;;32.10;59.90;;;;;;4977002;28;20878;-64
2022/08/24 07:53:19;;;;;;;6.40;3.53;;;32.30;58.50;;;;;;4977058;28;20458;-64
2022/08/24 07:55:53;;;;;;;3.47;3.17;;;32.20;59.00;;;;;;4976887;28;20821;-65
2022/08/24 07:58:20;;;;;;;4.03;3.40;;;32.70;57.90;;;;;;4976662;28;20439;-64
2022/08/24 08:00:49;;;;;;;7.03;3.47;;;33.20;56.70;;;;;;4976348;28;21019;-64
2022/08/24 08:03:15;;;;;;;3.73;3.03;;;33.50;56.80;;;;;;4976923;28;20518;-65
2022/08/24 08:05:42;;;;;;;4.00;3.70;;;33.80;54.80;;;;;;4977012;28;20458;-65
2022/08/24 08:08:10;;;;;;;3.50;3.20;;;33.90;54.60;;;;;;4976812;28;20482;-66
2022/08/24 08:10:39;;;;;;;5.87;3.27;;;34.10;53.00;;;;;;4976368;28;21068;-65
2022/08/24 08:13:06;;;;;;;3.00;2.80;;;34.30;53.80;;;;;;4976658;28;20506;-66
2022/08/24 08:15:33;;;;;;;2.70;2.50;;;34.70;52.00;;;;;;4976699;28;20469;-65
2022/08/24 08:18:01;;;;;;;3.07;2.87;;;35.00;51.30;;;;;;4976343;28;20861;-65
2022/08/24 08:20:29;;;;;;;2.13;2.03;;;35.50;48.70;;;;;;4976449;28;20472;-65
2022/08/24 08:25:40;;;;;;;3.43;2.37;;;35.70;48.60;;;;;;4976410;28;20821;-64
2022/08/24 08:28:07;;;;;;;2.70;2.43;;;35.90;47.60;;;;;;4976890;28;20485;-65
2022/08/24 08:30:33;;;;;;;2.60;2.50;;;36.20;46.50;;;;;;4976258;28;20453;-64
2022/08/24 08:33:02;;;;;;;2.70;2.50;;;36.50;46.60;;;;;;4976228;28;20469;-64
2022/08/24 08:35:29;;;;;;;2.80;2.60;;;36.80;47.30;;;;;;4976193;28;20454;-64
2022/08/24 08:37:56;;;;;;;7.60;2.60;;;37.10;46.10;;;;;;4976132;28;20476;-64
2022/08/24 08:40:34;;;;;;;2.50;2.23;;;37.10;45.50;;;;;;4976139;28;20493;-65
2022/08/24 08:43:04;;;;;;;4.53;2.50;;;37.70;45.00;;;;;;4976147;28;20451;-64
2022/08/24 08:45:37;;;;;;;4.22;2.00;;;37.80;44.10;;;;;;4975309;28;20462;-64
2022/08/24 08:48:27;;;;;;;2.13;2.10;;;37.70;44.80;;;;;;4975958;28;20203;-64
2022/08/24 08:51:20;;;;;;;2.63;2.50;;;37.70;44.00;;;;;;4975518;28;20474;-64
2022/08/24 08:54:12;;;;;;;2.40;2.30;;;37.80;42.60;;;;;;4975953;28;20525;-64
2022/08/24 08:56:50;;;;;;;2.43;2.33;;;38.00;43.20;;;;;;4975601;28;20449;-64
2022/08/24 08:59:32;;;;;;;2.77;2.57;;;38.10;43.00;;;;;;4975861;28;20537;-63
2022/08/24 09:02:14;;;;;;;2.00;1.90;;;37.90;43.10;;;;;;4975424;28;20492;-63
2022/08/24 09:04:54;;;;;;;2.63;1.93;;;38.30;43.40;;;;;;4975842;28;20533;-63
2022/08/24 09:07:35;;;;;;;4.97;2.00;;;38.50;42.20;;;;;;4975384;28;20466;-63
2022/08/24 09:10:38;;;;;;;2.13;1.97;;;38.70;43.20;;;;;;4975759;28;20445;-62
2022/08/24 09:13:15;;;;;;;2.50;2.30;;;37.90;42.40;;;;;;4957445;28;20956;-62
2022/08/24 09:15:58;;;;;;;1.63;1.53;;;38.00;42.20;;;;;;4975655;28;20442;-63
2022/08/24 09:18:46;;;;;;;2.97;2.00;;;38.00;42.60;;;;;;4975487;28;20450;-63
2022/08/24 09:21:45;;;;;;;2.10;1.77;;;38.00;42.60;;;;;;4975632;28;20577;-63
2022/08/24 09:24:40;;;;;;;1.70;1.60;;;38.50;43.40;;;;;;4975735;28;20474;-63
2022/08/24 09:27:19;;;;;;;1.93;1.83;;;38.80;41.60;;;;;;4975391;28;20462;-63
2022/08/24 09:29:59;;;;;;;3.93;2.33;;;39.60;40.70;;;;;;4975363;28;20852;-63
2022/08/24 09:32:36;;;;;;;3.63;2.10;;;39.60;41.00;;;;;;4975194;28;20250;-63
2022/08/24 09:35:05;;;;;;;2.17;1.90;;;40.10;38.70;;;;;;4975314;28;20190;-63
2022/08/24 09:37:52;;;;;;;2.27;2.07;;;40.40;39.40;;;;;;4975180;28;20199;-63
2022/08/24 09:40:35;;;;;;;2.20;2.00;;;40.50;39.20;;;;;;4975216;28;20322;-63
2022/08/24 09:43:40;;;;;;;1.90;1.80;;;40.60;39.30;;;;;;4975210;28;20187;-63
2022/08/24 09:46:36;;;;;;;1.97;1.87;;;40.60;38.70;;;;;;4975352;28;20195;-63
2022/08/24 09:49:30;;;;;;;3.00;2.10;;;40.00;38.80;;;;;;4975877;28;20613;-64
2022/08/24 09:52:20;;;;;;;3.03;1.90;;;39.60;39.60;;;;;;4975151;28;20478;-63
2022/08/24 09:55:07;;;;;;;2.03;1.90;;;39.10;40.20;;;;;;4974825;28;20438;-63
2022/08/24 09:57:56;;;;;;;2.20;2.00;;;39.40;39.30;;;;;;4975496;28;20533;-63
2022/08/24 10:00:27;;;;;;;2.57;2.30;;;39.30;40.00;;;;;;4974764;28;20458;-63
2022/08/24 10:03:14;;;;;;;2.13;2.03;;;39.60;40.90;;;;;;4975571;28;20532;-64
2022/08/24 10:06:03;;;;;;;1.87;1.87;;;39.60;39.50;;;;;;4975247;28;20189;-63
2022/08/24 10:08:42;;;;;;;1.57;1.50;;;39.70;39.20;;;;;;4975412;28;20470;-64
2022/08/24 10:11:20;;;;;;;2.00;1.90;;;39.50;39.20;;;;;;4976125;28;20484;-64
2022/08/24 10:13:54;;;;;;;2.93;1.90;;;39.30;38.90;;;;;;4976282;28;20806;-64
2022/08/24 10:16:32;;;;;;;1.73;1.63;;;39.60;38.60;;;;;;4975642;28;20205;-64
2022/08/24 10:19:18;;;;;;;1.73;1.63;;;39.70;37.70;;;;;;4975005;28;20185;-63
2022/08/24 10:21:55;;;;;;;1.77;1.67;;;39.80;37.90;;;;;;4978942;28;20496;-64
2022/08/24 10:24:52;;;;;;;3.43;1.80;;;39.80;37.40;;;;;;4978606;28;20194;-64
2022/08/24 10:27:39;;;;;;;1.50;1.50;;;39.70;37.90;;;;;;4978301;28;20186;-63
2022/08/24 10:30:32;;;;;;;2.70;2.17;;;39.80;38.50;;;;;;4978443;28;20492;-64
2022/08/24 10:33:15;;;;;;;1.97;1.90;;;40.30;36.80;;;;;;4978376;28;20631;-63
2022/08/24 10:35:59;;;;;;;1.90;1.80;;;40.40;36.60;;;;;;4978226;28;20187;-63
2022/08/24 10:42:04;;;;;;;2.83;1.60;;;39.80;37.80;;;;;;4978343;28;21064;-63
2022/08/24 10:44:48;;;;;;;3.70;1.57;;;39.90;36.40;;;;;;4952166;28;20199;-63
2022/08/24 10:47:27;;;;;;;2.13;1.90;;;39.70;37.30;;;;;;4978079;28;20442;-63
2022/08/24 10:50:26;;;;;;;2.67;1.97;;;39.70;37.60;;;;;;4978064;28;20559;-65
2022/08/24 10:53:06;;;;;;;1.73;1.63;;;39.50;37.50;;;;;;4978209;28;20719;-66
2022/08/24 10:55:35;;;;;;;1.87;1.77;;;39.40;36.30;;;;;;4977800;28;20909;-66
2022/08/24 10:58:18;;;;;;;2.50;1.63;;;39.20;35.60;;;;;;4977730;28;20960;-65
2022/08/24 11:00:47;;;;;;;4.23;1.80;;;39.10;35.90;;;;;;4977768;28;20493;-65
2022/08/24 11:03:17;;;;;;;5.30;2.13;;;38.60;37.60;;;;;;4977882;28;20454;-67
2022/08/24 11:05:47;;;;;;;2.23;2.03;;;38.50;37.00;;;;;;4978368;28;20541;-67
2022/08/24 11:08:20;;;;;;;3.20;2.00;;;38.00;37.90;;;;;;4978009;28;20478;-67
2022/08/24 11:11:05;;;;;;;1.83;1.83;;;37.60;38.60;;;;;;4978067;28;20481;-67
2022/08/24 11:13:33;;;;;;;2.27;2.07;;;37.30;38.90;;;;;;4978811;28;20446;-67
2022/08/24 11:16:03;;;;;;;2.53;1.60;;;37.10;38.70;;;;;;4978044;28;20540;-63
2022/08/24 11:18:48;;;;;;;1.70;1.60;;;36.80;40.10;;;;;;4977850;28;20439;-63
2022/08/24 11:21:35;;;;;;;2.00;1.70;;;36.60;38.80;;;;;;4977725;28;20510;-64
2022/08/24 11:24:03;;;;;;;4.10;2.00;;;36.00;39.60;;;;;;4977825;28;20442;-64
2022/08/24 11:26:31;;;;;;;2.30;2.20;;;35.70;40.70;;;;;;4977688;28;20462;-64
2022/08/24 11:29:00;;;;;;;2.43;2.23;;;35.50;40.00;;;;;;4977560;28;20524;-64
2022/08/24 11:31:34;;;;;;;5.17;2.10;;;35.40;40.70;;;;;;4977530;28;20540;-64
2022/08/24 11:34:04;;;;;;;3.33;2.27;;;34.70;40.90;;;;;;4977390;28;20470;-64
2022/08/24 11:36:36;;;;;;;2.30;1.60;;;34.60;41.40;;;;;;4977503;28;20463;-63
2022/08/24 11:39:14;;;;;;;2.60;2.07;;;34.40;42.30;;;;;;4978228;28;20461;-63
2022/08/24 11:41:50;;;;;;;1.80;1.70;;;34.30;42.70;;;;;;4977084;28;21019;-64
2022/08/24 11:44:28;;;;;;;4.13;1.87;;;34.20;43.20;;;;;;4977447;28;20442;-63
2022/08/24 11:47:04;;;;;;;2.03;1.93;;;34.10;42.70;;;;;;4977501;28;20449;-63
2022/08/24 11:49:46;;;;;;;1.83;1.73;;;34.10;43.00;;;;;;4977465;28;20497;-63
2022/08/24 11:52:25;;;;;;;4.20;2.20;;;34.10;44.70;;;;;;4977251;28;20493;-63
2022/08/24 11:55:02;;;;;;;2.70;2.50;;;33.90;43.90;;;;;;4977340;28;20442;-63
2022/08/24 11:57:34;;;;;;;4.80;2.47;;;34.00;43.90;;;;;;4977192;28;20529;-63
2022/08/24 12:00:08;;;;;;;1.90;1.90;;;33.90;43.30;;;;;;4977163;28;20443;-61
2022/08/24 12:02:42;;;;;;;3.13;2.00;;;33.60;44.50;;;;;;4976770;28;20488;-62
2022/08/24 12:05:22;;;;;;;2.60;2.47;;;33.30;45.20;;;;;;4977109;28;20442;-62
2022/08/24 12:08:14;;;;;;;2.37;2.17;;;33.20;44.40;;;;;;4977100;28;20478;-62
2022/08/24 12:10:49;;;;;;;3.67;2.20;;;33.20;46.00;;;;;;4977092;28;20550;-63
2022/08/24 12:13:31;;;;;;;2.47;2.33;;;33.10;43.80;;;;;;4977237;28;20443;-62
2022/08/24 12:16:08;;;;;;;11.17;2.67;;;32.80;44.70;;;;;;4977096;28;20471;-63
2022/08/24 12:18:50;;;;;;;2.20;2.00;;;32.60;45.50;;;;;;4976705;28;20925;-63
2022/08/24 12:21:21;;;;;;;1.90;1.90;;;32.40;44.80;;;;;;4976816;28;20479;-63
2022/08/24 12:23:52;;;;;;;2.20;2.10;;;32.30;46.40;;;;;;4977044;28;20494;-63
2022/08/24 12:26:26;;;;;;;2.00;1.90;;;32.30;45.50;;;;;;4976912;28;20814;-62
2022/08/24 12:29:00;;;;;;;4.90;2.27;;;32.30;44.60;;;;;;4976823;28;20470;-62
2022/08/24 12:31:38;;;;;;;2.30;2.20;;;32.40;45.40;;;;;;4976913;28;20510;-63
2022/08/24 12:34:12;;;;;;;6.93;2.20;;;32.60;45.40;;;;;;4976778;28;20509;-62
2022/08/24 12:36:46;;;;;;;3.13;2.07;;;32.60;44.60;;;;;;4976740;28;20439;-62
2022/08/24 12:39:18;;;;;;;1.43;1.43;;;32.70;43.60;;;;;;4976467;28;20439;-62
2022/08/24 12:41:54;;;;;;;2.00;1.90;;;32.90;43.50;;;;;;4976243;28;21046;-62
2022/08/24 12:44:26;;;;;;;2.07;1.87;;;32.80;44.00;;;;;;4975815;28;20442;-62
2022/08/24 12:46:53;;;;;;;2.00;1.90;;;32.90;44.10;;;;;;4976481;28;20443;-62
2022/08/24 12:49:27;;;;;;;1.93;1.83;;;32.90;43.80;;;;;;4976291;28;20479;-62
2022/08/24 12:52:34;;;;;;;1.93;1.83;;;32.80;45.30;;;;;;4976500;28;20478;-62
2022/08/24 12:55:17;;;;;;;2.37;2.17;;;32.90;45.60;;;;;;4976319;28;20439;-62
2022/08/24 12:57:57;;;;;;;2.63;1.90;;;33.00;45.00;;;;;;4976343;28;20442;-62
2022/08/24 13:00:28;;;;;;;2.20;2.00;;;33.00;45.60;;;;;;4975817;28;20465;-62
2022/08/24 13:03:00;;;;;;;2.00;1.77;;;33.10;45.40;;;;;;4976054;28;20846;-62
2022/08/24 13:05:40;;;;;;;1.90;1.80;;;33.20;45.60;;;;;;4975530;28;20857;-62
2022/08/24 13:08:12;;;;;;;2.00;1.90;;;33.30;44.20;;;;;;4975428;28;20933;-62
2022/08/24 13:10:43;;;;;;;2.30;2.03;;;33.40;44.40;;;;;;4975510;28;20486;-62
2022/08/24 13:13:15;;;;;;;2.93;2.13;;;33.50;45.00;;;;;;4975245;28;20868;-62
2022/08/24 13:15:56;;;;;;;2.10;2.00;;;33.70;44.40;;;;;;4975783;28;20450;-62
2022/08/24 13:18:49;;;;;;;3.30;2.03;;;34.00;45.20;;;;;;4975656;28;20563;-62
2022/08/24 13:21:43;;;;;;;1.90;1.80;;;34.10;44.50;;;;;;4975595;28;20481;-63
2022/08/24 13:24:50;;;;;;;1.73;1.63;;;34.20;41.80;;;;;;4975582;28;20452;-63
2022/08/24 13:27:55;;;;;;;1.77;1.70;;;34.30;43.00;;;;;;4975271;28;20430;-62
2022/08/24 13:30:30;;;;;;;2.20;2.10;;;34.30;42.00;;;;;;4927013;28;20489;-62
2022/08/24 13:33:03;;;;;;;1.87;1.77;;;34.10;42.90;;;;;;4975305;28;20442;-62
2022/08/24 13:35:36;;;;;;;2.00;1.90;;;34.10;42.80;;;;;;4975208;28;20444;-62
2022/08/24 13:38:47;;;;;;;2.10;1.90;;;34.20;42.20;;;;;;4974875;28;20442;-62
2022/08/24 13:41:25;;;;;;;1.83;1.73;;;34.10;43.20;;;;;;4974989;28;20478;-62
2022/08/24 13:43:59;;;;;;;1.70;1.70;;;34.10;42.00;;;;;;4975032;28;20468;-62
2022/08/24 13:46:47;;;;;;;1.80;1.80;;;33.90;43.10;;;;;;4975150;28;20474;-62
2022/08/24 13:49:27;;;;;;;3.07;1.80;;;33.70;41.80;;;;;;4975213;28;20473;-62
2022/08/24 13:52:06;;;;;;;2.17;2.07;;;33.70;41.60;;;;;;4975403;28;20477;-62
2022/08/24 13:54:41;;;;;;;2.23;2.13;;;33.70;43.10;;;;;;4973839;28;20933;-62
2022/08/24 13:57:38;;;;;;;2.33;2.23;;;33.80;44.00;;;;;;4974935;28;20445;-62
2022/08/24 14:00:40;;;;;;;2.30;2.20;;;34.00;42.80;;;;;;4974651;28;20952;-62
2022/08/24 14:03:26;;;;;;;2.27;2.17;;;34.10;42.10;;;;;;4975052;28;20437;-61
2022/08/24 14:05:56;;;;;;;1.97;1.87;;;34.00;43.50;;;;;;4974654;28;20435;-61
2022/08/24 14:08:36;;;;;;;3.03;2.03;;;34.00;43.60;;;;;;4974995;28;20466;-61
2022/08/24 14:11:10;;;;;;;2.60;2.50;;;34.00;43.10;;;;;;4974749;28;20484;-61
2022/08/24 14:13:52;;;;;;;2.97;2.40;;;33.80;43.20;;;;;;4974782;28;20442;-61
2022/08/24 14:19:28;;;;;;;2.60;2.27;;;33.80;43.50;;;;;;4974775;28;20414;-63
2022/08/24 14:22:00;;;;;;;2.47;2.27;;;33.70;43.60;;;;;;4974689;28;20482;-63
2022/08/24 14:24:35;;;;;;;1.97;1.87;;;33.80;44.20;;;;;;4974718;28;20438;-63
2022/08/24 14:27:34;;;;;;;2.23;1.90;;;34.00;43.30;;;;;;4974747;28;20841;-62
2022/08/24 14:30:34;;;;;;;2.17;2.07;;;33.80;42.90;;;;;;4974727;28;20474;-63
2022/08/24 14:33:11;;;;;;;2.40;2.20;;;33.70;43.00;;;;;;4974579;28;20439;-62
2022/08/24 14:35:41;;;;;;;2.60;2.40;;;33.70;43.40;;;;;;4974472;28;20516;-62
2022/08/24 14:38:37;;;;;;;2.30;2.10;;;33.60;43.30;;;;;;4974492;28;20450;-61
2022/08/24 14:41:44;;;;;;;2.03;1.93;;;33.40;43.60;;;;;;4974326;28;20981;-62
2022/08/24 14:44:40;;;;;;;2.20;2.10;;;33.30;43.90;;;;;;4969328;28;20816;-62
2022/08/24 14:47:19;;;;;;;3.33;1.97;;;33.10;44.10;;;;;;4959152;28;20458;-62
2022/08/24 14:50:03;;;;;;;2.70;2.60;;;33.10;43.50;;;;;;4974364;28;20465;-62
2022/08/24 14:52:53;;;;;;;2.17;2.07;;;32.80;44.80;;;;;;4974325;28;20573;-62
2022/08/24 14:55:29;;;;;;;2.07;2.03;;;32.90;45.20;;;;;;4974441;28;20443;-61
2022/08/24 14:58:35;;;;;;;2.73;2.53;;;32.90;44.30;;;;;;4974444;28;20448;-61
2022/08/24 15:01:35;;;;;;;4.70;2.20;;;32.90;45.70;;;;;;4970612;28;20494;-61
2022/08/24 15:04:27;;;;;;;2.33;2.23;;;32.90;45.80;;;;;;4974350;28;20460;-61
2022/08/24 15:06:58;;;;;;;3.43;2.27;;;32.80;46.00;;;;;;4953228;28;20494;-62
2022/08/24 15:09:28;;;;;;;3.57;2.90;;;32.70;46.80;;;;;;4977520;28;20970;-62
2022/08/24 15:12:20;;;;;;;3.33;3.13;;;32.70;47.30;;;;;;4977758;28;20481;-61
2022/08/24 15:14:52;;;;;;;2.70;2.50;;;32.90;47.50;;;;;;4977196;28;20459;-63
2022/08/24 15:17:26;;;;;;;3.10;2.80;;;32.70;47.70;;;;;;4977434;28;20497;-63
2022/08/24 15:19:57;;;;;;;3.90;2.50;;;32.50;48.00;;;;;;4977416;28;20965;-64
2022/08/24 15:22:29;;;;;;;2.83;2.60;;;32.50;49.00;;;;;;4977601;28;20482;-63
2022/08/24 15:25:03;;;;;;;2.37;2.27;;;32.30;48.20;;;;;;4978548;28;20825;-63
2022/08/24 15:27:42;;;;;;;2.30;2.20;;;32.30;48.40;;;;;;4977549;28;20538;-63
2022/08/24 15:30:20;;;;;;;2.47;2.37;;;32.30;48.50;;;;;;4977555;28;20463;-62
2022/08/24 15:32:51;;;;;;;2.67;2.50;;;32.10;48.10;;;;;;4977466;28;20453;-62
2022/08/24 15:35:24;;;;;;;2.40;2.30;;;32.00;48.80;;;;;;4977558;28;20443;-62
2022/08/24 15:37:52;;;;;;;2.37;2.27;;;32.00;49.80;;;;;;4977334;28;20458;-62
2022/08/24 15:40:25;;;;;;;2.27;2.17;;;32.00;49.80;;;;;;4977266;28;20485;-63
2022/08/24 15:42:54;;;;;;;2.47;2.37;;;32.00;49.70;;;;;;4977276;28;20439;-63
2022/08/24 15:45:21;;;;;;;2.00;1.90;;;32.00;50.30;;;;;;4977495;28;20454;-62
2022/08/24 15:47:51;;;;;;;2.17;2.07;;;32.10;50.70;;;;;;4977134;28;20600;-62
2022/08/24 15:50:25;;;;;;;2.80;2.60;;;32.10;50.10;;;;;;4977601;28;20470;-63
2022/08/24 15:52:58;;;;;;;2.33;2.23;;;32.10;50.50;;;;;;4976846;28;20928;-62
2022/08/24 15:55:38;;;;;;;2.07;1.97;;;32.00;50.70;;;;;;4976979;28;20498;-62
2022/08/24 15:58:33;;;;;;;2.57;2.47;;;32.00;49.80;;;;;;4976935;28;20450;-62
2022/08/24 16:04:06;;;;;;;1.90;1.80;;;31.70;49.70;;;;;;4976949;28;20418;-62
2022/08/24 16:06:40;;;;;;;3.27;2.10;;;31.60;49.60;;;;;;4977205;28;20450;-62
2022/08/24 16:09:12;;;;;;;2.10;2.00;;;31.60;50.20;;;;;;4976686;28;20466;-61
2022/08/24 16:11:41;;;;;;;1.97;1.90;;;31.50;50.80;;;;;;4976690;28;20470;-61
2022/08/24 16:14:14;;;;;;;3.17;2.30;;;31.60;51.30;;;;;;4976450;28;21000;-61
2022/08/24 16:16:45;;;;;;;2.43;2.23;;;31.60;50.80;;;;;;4976407;28;20937;-62
2022/08/24 16:19:23;;;;;;;2.50;2.30;;;31.40;51.00;;;;;;4975747;28;20925;-61
2022/08/24 16:21:57;;;;;;;2.37;2.27;;;31.30;51.10;;;;;;4976556;28;20912;-61
2022/08/24 16:24:28;;;;;;;2.57;2.30;;;31.20;51.80;;;;;;4976671;28;20525;-61
2022/08/24 16:26:59;;;;;;;2.30;2.10;;;31.00;52.30;;;;;;4976214;28;20903;-61
2022/08/24 16:29:45;;;;;;;2.20;2.10;;;30.90;52.50;;;;;;4976418;28;20466;-62
2022/08/24 16:32:14;;;;;;;4.53;2.30;;;30.90;53.10;;;;;;4976756;28;20893;-62
2022/08/24 16:34:44;;;;;;;2.23;2.13;;;30.80;53.50;;;;;;4976982;28;20454;-61
2022/08/24 16:37:11;;;;;;;2.17;2.07;;;30.60;54.30;;;;;;4976175;28;20459;-61
2022/08/24 16:39:37;;;;;;;2.23;2.10;;;30.50;53.90;;;;;;4976276;28;20517;-61
2022/08/24 16:42:09;;;;;;;2.27;2.17;;;30.40;54.30;;;;;;4976093;28;20478;-61
2022/08/24 16:44:39;;;;;;;5.83;2.60;;;30.20;55.10;;;;;;4976129;28;20443;-61
2022/08/24 16:47:07;;;;;;;4.13;2.17;;;30.10;55.70;;;;;;4976077;28;20448;-61
2022/08/24 16:49:35;;;;;;;2.20;2.10;;;29.90;55.90;;;;;;4975911;28;20518;-61
2022/08/24 16:52:04;;;;;;;4.07;2.60;;;29.90;56.20;;;;;;4975869;28;20478;-61
2022/08/24 16:54:31;;;;;;;2.33;2.13;;;29.80;56.70;;;;;;4975908;28;20454;-61
2022/08/24 16:57:00;;;;;;;2.73;2.10;;;29.70;56.30;;;;;;4975891;28;20513;-61
2022/08/24 16:59:31;;;;;;;3.70;3.07;;;29.60;56.30;;;;;;4975866;28;20454;-61
2022/08/24 17:01:58;;;;;;;2.30;2.00;;;29.60;56.70;;;;;;4975588;28;20514;-62
2022/08/24 17:04:25;;;;;;;2.50;2.17;;;29.60;56.40;;;;;;4975676;28;20458;-61
2022/08/24 17:06:54;;;;;;;3.50;2.13;;;29.60;56.40;;;;;;4975860;28;20490;-61
2022/08/24 17:09:23;;;;;;;2.60;2.07;;;29.60;56.20;;;;;;4975619;28;20493;-61
2022/08/24 17:11:50;;;;;;;5.17;2.53;;;29.50;56.70;;;;;;4975219;28;21012;-61
2022/08/24 17:14:17;;;;;;;2.33;1.80;;;29.40;56.70;;;;;;4975301;28;20992;-61
2022/08/24 17:16:44;;;;;;;2.50;2.40;;;29.40;57.00;;;;;;4975505;28;20541;-61
2022/08/24 17:19:13;;;;;;;4.80;2.50;;;29.40;57.30;;;;;;4975700;28;20447;-61
2022/08/24 17:21:40;;;;;;;2.50;2.10;;;29.40;57.50;;;;;;4975502;28;20475;-61
2022/08/24 17:24:07;;;;;;;2.30;2.10;;;29.40;57.70;;;;;;4975521;28;20466;-61
2022/08/24 17:26:36;;;;;;;2.17;2.07;;;29.30;57.50;;;;;;4976254;28;20450;-61
2022/08/24 17:29:08;;;;;;;2.03;1.93;;;29.30;57.50;;;;;;4975950;28;20450;-61
2022/08/24 17:31:36;;;;;;;1.93;1.80;;;29.20;57.80;;;;;;4975116;28;20486;-61
2022/08/24 17:34:03;;;;;;;2.07;1.97;;;29.20;58.20;;;;;;4975191;28;20458;-61
2022/08/24 17:36:30;;;;;;;1.93;1.83;;;29.10;58.30;;;;;;4975359;28;20546;-61